createdAt,value
2018-11-07T00:00:17.168Z,99953.49
2018-11-07T00:02:45.589Z,99945.73
2018-11-07T00:05:14.611Z,99943.47
2018-11-07T00:07:42.278Z,99938.66
2018-11-07T00:10:10.013Z,99946.70
2018-11-07T00:12:38.025Z,99945.52
2018-11-07T00:15:08.506Z,99950.64
2018-11-07T00:17:36.173Z,99949.29
2018-11-07T00:20:05.449Z,99951.95
2018-11-07T00:22:33.217Z,99945.40
2018-11-07T00:25:00.894Z,99942.03
2018-11-07T00:27:28.612Z,99944.46
2018-11-07T00:29:56.419Z,99950.98
2018-11-07T00:32:24.033Z,99947.95
2018-11-07T00:34:51.741Z,99947.95
2018-11-07T00:37:19.407Z,99951.80
2018-11-07T00:39:47.357Z,99945.62
2018-11-07T00:42:15.132Z,99946.00
2018-11-07T00:44:42.825Z,99945.38
2018-11-07T00:47:10.590Z,99940.44
2018-11-07T00:49:38.305Z,99946.33
2018-11-07T00:52:06.018Z,99951.32
2018-11-07T00:54:33.758Z,99951.84
2018-11-07T00:57:01.514Z,99947.09
2018-11-07T00:59:29.240Z,99938.04
2018-11-07T01:01:56.952Z,99936.25
2018-11-07T01:04:24.604Z,99940.70
2018-11-07T01:06:52.325Z,99946.37
2018-11-07T01:09:20.093Z,99953.22
2018-11-07T01:11:47.782Z,99944.84
2018-11-07T01:14:15.494Z,99945.61
2018-11-07T01:16:43.190Z,99937.83
2018-11-07T01:19:10.823Z,99941.84
2018-11-07T01:21:38.473Z,99938.73
2018-11-07T01:24:06.398Z,99950.56
2018-11-07T01:26:34.225Z,99946.89
2018-11-07T01:29:01.920Z,99946.88
2018-11-07T01:31:29.938Z,99943.24
2018-11-07T01:33:57.808Z,99944.23
2018-11-07T01:36:25.668Z,99960.13
2018-11-07T01:38:53.307Z,99963.91
2018-11-07T01:41:24.299Z,99964.73
2018-11-07T01:43:52.089Z,99965.97
2018-11-07T01:46:19.779Z,99962.56
2018-11-07T01:48:47.548Z,99968.80
2018-11-07T01:51:15.306Z,99967.03
2018-11-07T01:53:43.185Z,99979.61
2018-11-07T01:56:11.121Z,99966.27
2018-11-07T01:58:39.114Z,99966.27
2018-11-07T02:01:07.146Z,99964.83
2018-11-07T02:03:35.730Z,99971.08
2018-11-07T02:06:03.636Z,99972.14
2018-11-07T02:08:31.605Z,99968.59
2018-11-07T02:11:00.183Z,99964.92
2018-11-07T02:13:28.141Z,99967.50
2018-11-07T02:15:55.940Z,99975.64
2018-11-07T02:18:23.684Z,99970.33
2018-11-07T02:20:51.428Z,99966.03
2018-11-07T02:23:19.137Z,99956.46
2018-11-07T02:25:47.192Z,99957.17
2018-11-07T02:28:14.933Z,99963.09
2018-11-07T02:30:42.606Z,99963.80
2018-11-07T02:33:10.349Z,99951.06
2018-11-07T02:35:38.033Z,99953.47
2018-11-07T02:38:05.693Z,99955.33
2018-11-07T02:40:33.413Z,99948.17
2018-11-07T02:43:01.285Z,99950.05
2018-11-07T02:45:28.979Z,99949.06
2018-11-07T02:47:56.751Z,99951.43
2018-11-07T02:50:24.420Z,99957.56
2018-11-07T02:52:52.109Z,99952.56
2018-11-07T02:55:19.769Z,99948.38
2018-11-07T02:57:47.469Z,99950.00
2018-11-07T03:00:15.265Z,99961.16
2018-11-07T03:02:42.992Z,99962.06
2018-11-07T03:05:10.726Z,99949.78
2018-11-07T03:07:39.407Z,99955.40
2018-11-07T03:10:09.774Z,99947.14
2018-11-07T03:12:37.825Z,99958.33
2018-11-07T03:15:06.080Z,99965.11
2018-11-07T03:17:33.796Z,99963.86
2018-11-07T03:20:01.478Z,99964.44
2018-11-07T03:22:29.209Z,99967.75
2018-11-07T03:24:56.946Z,99972.64
2018-11-07T03:27:28.624Z,99967.93
2018-11-07T03:29:56.297Z,99977.04
2018-11-07T03:32:24.022Z,99972.81
2018-11-07T03:34:51.745Z,99977.56
2018-11-07T03:37:19.479Z,99980.00
2018-11-07T03:39:47.212Z,99976.05
2018-11-07T03:42:14.998Z,99977.77
2018-11-07T03:44:42.691Z,99973.47
2018-11-07T03:47:10.414Z,99972.88
2018-11-07T03:49:38.216Z,99972.08
2018-11-07T03:52:05.902Z,99980.82
2018-11-07T03:54:33.604Z,99974.19
2018-11-07T03:57:01.393Z,99969.11
2018-11-07T03:59:29.119Z,99972.94
2018-11-07T04:01:56.763Z,99976.81
2018-11-07T04:04:24.399Z,99968.91
2018-11-07T04:06:52.125Z,99957.34
2018-11-07T04:09:19.917Z,99957.77
2018-11-07T04:11:47.650Z,99965.45
2018-11-07T04:14:15.281Z,99971.85
2018-11-07T04:16:43.053Z,99969.92
2018-11-07T04:19:10.785Z,99966.30
2018-11-07T04:21:38.864Z,99971.84
2018-11-07T04:24:06.529Z,99968.68
2018-11-07T04:26:36.352Z,99974.41
2018-11-07T04:29:04.324Z,99970.98
2018-11-07T04:31:32.036Z,99975.38
2018-11-07T04:33:59.852Z,99976.23
2018-11-07T04:36:27.558Z,99971.70
2018-11-07T04:38:55.588Z,99971.14
2018-11-07T04:41:23.585Z,99975.09
2018-11-07T04:43:51.300Z,99973.77
2018-11-07T04:46:19.039Z,99988.04
2018-11-07T04:48:46.788Z,99990.11
2018-11-07T04:53:42.609Z,99988.23
2018-11-07T04:56:10.608Z,99987.81
2018-11-07T04:58:38.324Z,99986.66
2018-11-07T05:01:06.545Z,99992.60
2018-11-07T05:03:34.740Z,99987.44
2018-11-07T05:06:02.449Z,99981.64
2018-11-07T05:08:30.172Z,99980.21
2018-11-07T05:10:57.868Z,99983.61
2018-11-07T05:13:29.759Z,99976.29
2018-11-07T05:15:57.508Z,99975.05
2018-11-07T05:18:25.150Z,99980.05
2018-11-07T05:20:52.829Z,99989.92
2018-11-07T05:23:20.580Z,99990.80
2018-11-07T05:25:48.330Z,99990.57
2018-11-07T05:28:16.070Z,99991.72
2018-11-07T05:30:43.717Z,99987.47
2018-11-07T05:33:11.460Z,99991.83
2018-11-07T05:35:39.132Z,99991.20
2018-11-07T05:38:06.874Z,99992.44
2018-11-07T05:40:34.585Z,100001.65
2018-11-07T05:43:02.252Z,100005.55
2018-11-07T05:45:30.008Z,100004.36
2018-11-07T05:47:57.756Z,100012.63
2018-11-07T05:50:25.452Z,100018.70
2018-11-07T05:52:53.157Z,100010.69
2018-11-07T05:55:20.833Z,100016.45
2018-11-07T05:57:52.126Z,100025.42
2018-11-07T06:00:19.849Z,100027.09
2018-11-07T06:02:47.533Z,100018.88
2018-11-07T06:05:15.177Z,100018.33
2018-11-07T06:07:42.873Z,100019.55
2018-11-07T06:10:11.903Z,100018.95
2018-11-07T06:12:40.173Z,100019.72
2018-11-07T06:15:09.148Z,100025.44
2018-11-07T06:17:36.900Z,100028.97
2018-11-07T06:20:05.573Z,100024.16
2018-11-07T06:22:33.260Z,100037.09
2018-11-07T06:25:01.196Z,100038.94
2018-11-07T06:27:28.689Z,100033.21
2018-11-07T06:29:56.360Z,100038.95
2018-11-07T06:32:24.112Z,100035.84
2018-11-07T06:34:51.841Z,100040.75
2018-11-07T06:37:20.017Z,100047.87
2018-11-07T06:39:47.717Z,100049.75
2018-11-07T06:42:15.454Z,100051.80
2018-11-07T06:44:43.172Z,100051.80
2018-11-07T06:47:10.909Z,100050.45
2018-11-07T06:49:38.716Z,100047.22
2018-11-07T06:52:06.398Z,100042.85
2018-11-07T06:54:34.084Z,100042.55
2018-11-07T06:57:01.789Z,100051.10
2018-11-07T06:59:29.445Z,100052.45
2018-11-07T07:01:57.157Z,100054.63
2018-11-07T07:04:24.914Z,100051.48
2018-11-07T07:06:52.621Z,100056.89
2018-11-07T07:09:20.323Z,100051.56
2018-11-07T07:11:48.005Z,100048.67
2018-11-07T07:14:15.685Z,100038.14
2018-11-07T07:16:43.449Z,100040.09
2018-11-07T07:19:11.189Z,100043.41
2018-11-07T07:21:38.969Z,100042.87
2018-11-07T07:24:06.690Z,100036.80
2018-11-07T07:26:34.422Z,100035.45
2018-11-07T07:29:02.227Z,100036.03
2018-11-07T07:31:29.945Z,100044.69
2018-11-07T07:33:57.692Z,100051.36
2018-11-07T07:36:25.444Z,100051.72
2018-11-07T07:38:53.157Z,100040.71
2018-11-07T07:41:20.895Z,100045.22
2018-11-07T07:43:48.617Z,100058.16
2018-11-07T07:46:16.269Z,100057.16
2018-11-07T07:48:44.132Z,100059.91
2018-11-07T07:51:11.854Z,100051.77
2018-11-07T07:53:39.564Z,100053.41
2018-11-07T07:56:07.318Z,100057.73
2018-11-07T07:58:34.984Z,100060.33
2018-11-07T08:01:02.749Z,100053.48
2018-11-07T08:03:30.548Z,100049.94
2018-11-07T08:05:58.288Z,100049.37
2018-11-07T08:08:25.980Z,100051.98
2018-11-07T08:10:53.720Z,100053.64
2018-11-07T08:13:21.523Z,100044.67
2018-11-07T08:15:50.159Z,100041.70
2018-11-07T08:18:17.833Z,100045.52
2018-11-07T08:20:45.500Z,100048.79
2018-11-07T08:23:13.169Z,100052.09
2018-11-07T08:25:40.827Z,100047.72
2018-11-07T08:28:08.552Z,100046.17
2018-11-07T08:30:36.248Z,100044.55
2018-11-07T08:33:04.393Z,100046.36
2018-11-07T08:35:32.097Z,100042.84
2018-11-07T08:38:00.049Z,100041.45
2018-11-07T08:40:27.744Z,100041.69
2018-11-07T08:42:56.500Z,100040.86
2018-11-07T08:45:24.229Z,100045.72
2018-11-07T08:47:51.944Z,100048.34
2018-11-07T08:50:20.399Z,100037.45
2018-11-07T08:52:48.476Z,100037.45
2018-11-07T08:55:21.268Z,100039.16
2018-11-07T08:57:48.968Z,100038.42
2018-11-07T09:00:17.956Z,100039.89
2018-11-07T09:02:45.900Z,100041.69
2018-11-07T09:05:14.421Z,100040.90
2018-11-07T09:07:42.797Z,100045.47
2018-11-07T09:10:11.673Z,100043.22
2018-11-07T09:12:39.554Z,100044.24
2018-11-07T09:15:11.889Z,100044.88
2018-11-07T09:17:39.620Z,100042.29
2018-11-07T09:20:09.970Z,100045.06
2018-11-07T09:22:37.816Z,100043.66
2018-11-07T09:25:05.957Z,100040.14
2018-11-07T09:27:33.578Z,100042.25
2018-11-07T09:30:01.279Z,100044.52
2018-11-07T09:32:28.951Z,100049.51
2018-11-07T09:34:57.418Z,100039.98
2018-11-07T09:37:25.989Z,100036.39
2018-11-07T09:39:54.833Z,100040.73
2018-11-07T09:42:23.356Z,100043.86
2018-11-07T09:44:51.683Z,100034.56
2018-11-07T09:47:19.922Z,100045.34
2018-11-07T09:49:48.273Z,100043.67
2018-11-07T09:52:17.381Z,100051.89
2018-11-07T09:54:45.735Z,100050.34
2018-11-07T09:57:14.325Z,100042.88
2018-11-07T09:59:42.837Z,100039.41
2018-11-07T10:02:10.857Z,100045.45
2018-11-07T10:04:39.276Z,100044.58
2018-11-07T10:07:07.089Z,100046.30
2018-11-07T10:09:35.703Z,100046.78
2018-11-07T10:12:04.741Z,100045.87
2018-11-07T10:14:33.179Z,100045.48
2018-11-07T10:17:01.029Z,100036.97
2018-11-07T10:19:29.060Z,100029.04
2018-11-07T10:21:57.389Z,100033.63
2018-11-07T10:24:26.285Z,100027.59
2018-11-07T10:26:55.197Z,100026.94
2018-11-07T10:29:24.127Z,100026.41
2018-11-07T10:31:54.113Z,100019.92
2018-11-07T10:34:22.954Z,100019.36
2018-11-07T10:36:51.541Z,100015.28
2018-11-07T10:39:20.224Z,100014.19
2018-11-07T10:41:48.752Z,100010.89
2018-11-07T10:44:17.000Z,100002.30
2018-11-07T10:46:44.713Z,100000.09
2018-11-07T10:49:12.841Z,100003.92
2018-11-07T10:51:41.278Z,99992.58
2018-11-07T10:54:10.158Z,99993.00
2018-11-07T10:56:38.952Z,99994.02
2018-11-07T10:59:07.457Z,99991.22
2018-11-07T11:01:41.403Z,99992.81
2018-11-07T11:04:10.324Z,99993.91
2018-11-07T11:06:38.973Z,99992.14
2018-11-07T11:09:07.818Z,99991.38
2018-11-07T11:11:35.975Z,99987.41
2018-11-07T11:14:04.556Z,99986.62
2018-11-07T11:16:33.290Z,99985.84
2018-11-07T11:19:02.006Z,99991.63
2018-11-07T11:21:30.248Z,99985.66
2018-11-07T11:23:58.732Z,99986.17
2018-11-07T11:26:26.483Z,99982.77
2018-11-07T11:28:54.274Z,99988.90
2018-11-07T11:31:22.493Z,99979.09
2018-11-07T11:33:50.804Z,99975.66
2018-11-07T11:36:20.251Z,99980.13
2018-11-07T11:38:49.980Z,99983.64
2018-11-07T11:41:18.243Z,99976.10
2018-11-07T11:43:45.950Z,99968.53
2018-11-07T11:46:14.897Z,99969.05
2018-11-07T11:48:43.401Z,99968.44
2018-11-07T11:51:11.708Z,99967.88
2018-11-07T11:53:39.775Z,99966.29
2018-11-07T11:56:07.999Z,99960.96
2018-11-07T11:58:36.368Z,99956.82
2018-11-07T12:01:05.757Z,99959.35
2018-11-07T12:03:33.821Z,99961.44
2018-11-07T12:06:02.137Z,99963.34
2018-11-07T12:08:31.109Z,99961.20
2018-11-07T12:10:59.093Z,99965.70
2018-11-07T12:13:28.317Z,99961.94
2018-11-07T12:15:56.442Z,99964.53
2018-11-07T12:18:24.887Z,99968.14
2018-11-07T12:20:53.137Z,99961.22
2018-11-07T12:23:21.386Z,99962.66
2018-11-07T12:25:49.609Z,99953.83
2018-11-07T12:28:18.020Z,99961.85
2018-11-07T12:30:46.257Z,99952.78
2018-11-07T12:33:14.519Z,99958.32
2018-11-07T12:35:43.046Z,99951.13
2018-11-07T12:38:11.320Z,99943.78
2018-11-07T12:40:39.754Z,99946.80
2018-11-07T12:43:07.870Z,99947.91
2018-11-07T12:45:36.221Z,99959.75
2018-11-07T12:48:04.405Z,99952.57
2018-11-07T12:50:32.145Z,99962.23
2018-11-07T12:52:59.750Z,99954.02
2018-11-07T12:55:27.398Z,99947.14
2018-11-07T12:57:55.158Z,99949.91
2018-11-07T13:00:24.012Z,99952.10
2018-11-07T13:02:51.860Z,99955.67
2018-11-07T13:05:20.438Z,99940.83
2018-11-07T13:07:48.946Z,99948.25
2018-11-07T13:10:17.993Z,99950.18
2018-11-07T13:12:46.233Z,99953.80
2018-11-07T13:15:14.733Z,99953.83
2018-11-07T13:17:42.656Z,99951.58
2018-11-07T13:20:15.237Z,99951.84
2018-11-07T13:22:44.062Z,99957.64
2018-11-07T13:25:12.353Z,99954.89
2018-11-07T13:27:40.084Z,99963.42
2018-11-07T13:30:13.721Z,99959.56
2018-11-07T13:32:41.661Z,99962.05
2018-11-07T13:35:10.280Z,99961.48
2018-11-07T13:37:38.934Z,99957.63
2018-11-07T13:40:10.033Z,99962.00
2018-11-07T13:42:37.700Z,99958.44
2018-11-07T13:45:09.366Z,99955.67
2018-11-07T13:47:37.418Z,99949.07
2018-11-07T13:50:05.110Z,99949.61
2018-11-07T13:52:32.852Z,99953.21
2018-11-07T13:55:00.922Z,99952.91
2018-11-07T13:57:28.554Z,99952.91
2018-11-07T13:59:56.238Z,99951.53
2018-11-07T14:02:23.986Z,99957.05
2018-11-07T14:04:51.677Z,99960.91
2018-11-07T14:07:19.361Z,99962.86
2018-11-07T14:09:47.140Z,99967.80
2018-11-07T14:12:14.914Z,99970.55
2018-11-07T14:14:42.688Z,99978.53
2018-11-07T14:17:10.542Z,99972.48
2018-11-07T14:19:38.913Z,99981.86
2018-11-07T14:22:06.636Z,99976.35
2018-11-07T14:24:34.392Z,99979.93
2018-11-07T14:27:02.153Z,99976.38
2018-11-07T14:29:29.890Z,99987.14
2018-11-07T14:31:57.817Z,99991.27
2018-11-07T14:34:25.789Z,99987.42
2018-11-07T14:36:53.573Z,99991.02
2018-11-07T14:39:21.229Z,99987.18
2018-11-07T14:41:48.972Z,99996.56
2018-11-07T14:44:16.724Z,99997.69
2018-11-07T14:46:44.462Z,99999.88
2018-11-07T14:49:12.240Z,99998.52
2018-11-07T14:51:39.980Z,100000.98
2018-11-07T14:54:07.637Z,100009.78
2018-11-07T14:56:35.288Z,100010.61
2018-11-07T14:59:03.029Z,100009.23
2018-11-07T15:01:30.732Z,100008.41
2018-11-07T15:03:58.489Z,100018.30
2018-11-07T15:06:26.258Z,100018.31
2018-11-07T15:08:53.990Z,100015.56
2018-11-07T15:11:21.825Z,100016.65
2018-11-07T15:13:49.627Z,100021.03
2018-11-07T15:16:17.348Z,100021.30
2018-11-07T15:18:48.686Z,100027.08
2018-11-07T15:21:17.476Z,100029.53
2018-11-07T15:23:45.919Z,100034.17
2018-11-07T15:26:13.668Z,100035.20
2018-11-07T15:28:41.443Z,100040.39
2018-11-07T15:31:09.153Z,100041.77
2018-11-07T15:33:38.520Z,100039.54
2018-11-07T15:36:06.386Z,100045.83
2018-11-07T15:38:34.093Z,100042.43
2018-11-07T15:41:01.902Z,100047.06
2018-11-07T15:43:29.729Z,100042.34
2018-11-07T15:45:57.458Z,100057.64
2018-11-07T15:48:25.075Z,100058.32
2018-11-07T15:50:58.663Z,100057.55
2018-11-07T15:53:26.381Z,100047.29
2018-11-07T15:55:54.061Z,100056.89
2018-11-07T15:58:23.076Z,100057.34
2018-11-07T16:00:51.789Z,100060.31
2018-11-07T16:03:25.284Z,100060.84
2018-11-07T16:05:53.054Z,100066.76
2018-11-07T16:08:20.740Z,100067.98
2018-11-07T16:10:48.393Z,100070.95
2018-11-07T16:13:16.208Z,100066.69
2018-11-07T16:15:44.648Z,100076.38
2018-11-07T16:18:13.605Z,100078.86
2018-11-07T16:20:43.920Z,100073.83
2018-11-07T16:23:11.577Z,100073.95
2018-11-07T16:25:39.350Z,100072.94
2018-11-07T16:28:07.106Z,100072.53
2018-11-07T16:30:34.865Z,100079.38
2018-11-07T16:33:02.553Z,100072.13
2018-11-07T16:35:30.328Z,100075.80
2018-11-07T16:37:58.091Z,100079.20
2018-11-07T16:40:25.918Z,100081.53
2018-11-07T16:42:53.669Z,100088.22
2018-11-07T16:45:21.414Z,100083.63
2018-11-07T16:47:49.171Z,100091.23
2018-11-07T16:50:17.520Z,100100.88
2018-11-07T16:52:45.259Z,100099.70
2018-11-07T16:55:13.471Z,100104.61
2018-11-07T16:57:41.268Z,100114.19
2018-11-07T17:00:14.092Z,100109.53
2018-11-07T17:02:42.654Z,100110.76
2018-11-07T17:05:11.193Z,100112.83
2018-11-07T17:07:39.297Z,100111.94
2018-11-07T17:10:08.008Z,100122.82
2018-11-07T17:12:35.993Z,100126.16
2018-11-07T17:15:03.785Z,100136.23
2018-11-07T17:17:31.520Z,100144.89
2018-11-07T17:19:59.362Z,100150.87
2018-11-07T17:22:27.285Z,100157.33
2018-11-07T17:24:55.809Z,100172.97
2018-11-07T17:27:23.728Z,100176.76
2018-11-07T17:29:51.524Z,100179.33
2018-11-07T17:32:19.254Z,100169.94
2018-11-07T17:34:47.021Z,100168.53
2018-11-07T17:37:14.813Z,100176.75
2018-11-07T17:39:42.509Z,100184.79
2018-11-07T17:42:10.225Z,100191.41
2018-11-07T17:44:39.249Z,100202.16
2018-11-07T17:47:07.888Z,100196.16
2018-11-07T17:49:35.660Z,100198.11
2018-11-07T17:52:03.384Z,100201.23
2018-11-07T17:54:31.085Z,100195.91
2018-11-07T17:56:59.366Z,100200.16
2018-11-07T17:59:27.201Z,100208.27
2018-11-07T18:01:55.019Z,100203.06
2018-11-07T18:04:22.834Z,100196.00
2018-11-07T18:06:50.508Z,100196.98
2018-11-07T18:09:18.289Z,100195.36
2018-11-07T18:11:46.060Z,100204.98
2018-11-07T18:14:13.817Z,100221.97
2018-11-07T18:16:41.627Z,100225.94
2018-11-07T18:19:09.981Z,100232.20
2018-11-07T18:21:37.821Z,100245.76
2018-11-07T18:24:05.633Z,100242.89
2018-11-07T18:26:33.491Z,100248.33
2018-11-07T18:29:01.265Z,100250.37
2018-11-07T18:31:29.592Z,100251.34
2018-11-07T18:33:57.337Z,100250.50
2018-11-07T18:36:25.162Z,100249.77
2018-11-07T18:38:52.909Z,100235.47
2018-11-07T18:41:20.637Z,100229.70
2018-11-07T18:43:48.372Z,100230.42
2018-11-07T18:46:16.083Z,100221.64
2018-11-07T18:48:43.750Z,100231.51
2018-11-07T18:51:11.431Z,100235.70
2018-11-07T18:53:39.160Z,100264.32
2018-11-07T18:56:06.838Z,100283.38
2018-11-07T18:58:34.672Z,100291.30
2018-11-07T19:01:02.361Z,100286.72
2018-11-07T19:03:30.062Z,100287.38
2018-11-07T19:05:57.820Z,100295.83
2018-11-07T19:08:25.564Z,100302.38
2018-11-07T19:10:53.301Z,100302.13
2018-11-07T19:13:21.021Z,100302.92
2018-11-07T19:15:48.679Z,100307.06
2018-11-07T19:18:16.475Z,100315.42
2018-11-07T19:20:44.221Z,100307.82
2018-11-07T19:23:11.969Z,100316.78
2018-11-07T19:25:39.777Z,100321.25
2018-11-07T19:28:08.098Z,100323.45
2018-11-07T19:30:36.834Z,100323.73
2018-11-07T19:33:06.282Z,100323.48
2018-11-07T19:35:34.373Z,100330.10
2018-11-07T19:38:02.485Z,100333.31
2018-11-07T19:40:31.453Z,100333.56
2018-11-07T19:42:59.393Z,100331.61
2018-11-07T19:45:27.769Z,100333.74
2018-11-07T19:47:55.549Z,100335.86
2018-11-07T19:50:24.577Z,100321.10
2018-11-07T19:52:53.134Z,100312.79
2018-11-07T19:55:23.089Z,100311.92
2018-11-07T19:57:55.344Z,100310.05
2018-11-07T20:00:24.305Z,100303.03
2018-11-07T20:02:52.228Z,100308.14
2018-11-07T20:05:20.001Z,100308.25
2018-11-07T20:07:47.677Z,100321.54
2018-11-07T20:10:16.841Z,100307.13
2018-11-07T20:12:44.530Z,100313.08
2018-11-07T20:15:13.446Z,100315.48
2018-11-07T20:17:41.312Z,100324.52
2018-11-07T20:20:09.325Z,100339.03
2018-11-07T20:22:37.132Z,100342.63
2018-11-07T20:25:06.456Z,100342.84
2018-11-07T20:27:34.250Z,100357.35
2018-11-07T20:30:02.024Z,100350.23
2018-11-07T20:32:29.765Z,100343.78
2018-11-07T20:34:57.632Z,100342.31
2018-11-07T20:37:25.560Z,100349.14
2018-11-07T20:39:53.256Z,100353.25
2018-11-07T20:42:20.945Z,100356.23
2018-11-07T20:44:48.613Z,100360.92
2018-11-07T20:47:16.305Z,100368.30
2018-11-07T20:49:44.239Z,100366.10
2018-11-07T20:52:11.945Z,100372.44
2018-11-07T20:54:39.788Z,100377.08
2018-11-07T20:57:07.412Z,100381.73
2018-11-07T20:59:35.545Z,100384.83
2018-11-07T21:02:03.657Z,100385.66
2018-11-07T21:04:31.430Z,100385.11
2018-11-07T21:06:59.196Z,100387.60
2018-11-07T21:09:27.031Z,100395.31
2018-11-07T21:11:54.776Z,100395.84
2018-11-07T21:14:22.459Z,100399.73
2018-11-07T21:16:50.211Z,100401.64
2018-11-07T21:19:17.944Z,100407.41
2018-11-07T21:21:45.601Z,100418.89
2018-11-07T21:24:17.183Z,100422.75
2018-11-07T21:26:45.024Z,100430.41
2018-11-07T21:29:12.748Z,100433.94
2018-11-07T21:31:40.460Z,100432.79
2018-11-07T21:34:08.224Z,100430.30
2018-11-07T21:36:35.905Z,100434.70
2018-11-07T21:39:07.180Z,100443.73
2018-11-07T21:41:35.261Z,100448.59
2018-11-07T21:44:03.113Z,100442.86
2018-11-07T21:46:30.880Z,100447.80
2018-11-07T21:48:58.648Z,100447.66
2018-11-07T21:51:26.643Z,100446.30
2018-11-07T21:53:54.360Z,100445.42
2018-11-07T21:56:22.231Z,100445.11
2018-11-07T21:58:50.035Z,100440.53
2018-11-07T22:01:17.700Z,100446.30
2018-11-07T22:03:45.464Z,100444.92
2018-11-07T22:06:13.134Z,100445.76
2018-11-07T22:08:40.965Z,100454.51
2018-11-07T22:11:08.656Z,100450.11
2018-11-07T22:13:36.364Z,100456.05
2018-11-07T22:16:04.440Z,100459.58
2018-11-07T22:18:32.107Z,100459.58
2018-11-07T22:21:00.135Z,100465.34
2018-11-07T22:23:29.109Z,100465.30
2018-11-07T22:25:56.865Z,100464.71
2018-11-07T22:28:24.577Z,100462.80
2018-11-07T22:30:52.314Z,100468.49
2018-11-07T22:33:20.062Z,100458.45
2018-11-07T22:35:47.831Z,100460.90
2018-11-07T22:38:15.542Z,100460.36
2018-11-07T22:40:43.261Z,100465.30
2018-11-07T22:43:11.049Z,100473.21
2018-11-07T22:45:38.813Z,100470.19
2018-11-07T22:48:06.602Z,100478.56
2018-11-07T22:50:35.138Z,100478.86
2018-11-07T22:53:02.860Z,100479.64
2018-11-07T22:55:30.545Z,100483.50
2018-11-07T22:57:58.225Z,100483.38
2018-11-07T23:00:31.709Z,100475.17
2018-11-07T23:02:59.443Z,100474.05
2018-11-07T23:05:27.144Z,100474.92
2018-11-07T23:07:54.933Z,100474.87
2018-11-07T23:10:22.604Z,100480.18
2018-11-07T23:12:50.612Z,100485.87
2018-11-07T23:15:24.148Z,100484.28
2018-11-07T23:17:51.869Z,100488.56
2018-11-07T23:20:19.585Z,100497.06
2018-11-07T23:22:47.303Z,100495.89
2018-11-07T23:25:14.977Z,100505.47
2018-11-07T23:27:42.818Z,100505.88
2018-11-07T23:30:10.537Z,100511.52
2018-11-07T23:32:38.378Z,100516.20
2018-11-07T23:35:06.501Z,100518.11
2018-11-07T23:37:34.238Z,100521.39
2018-11-07T23:40:01.993Z,100525.25
2018-11-07T23:42:29.721Z,100523.83
2018-11-07T23:44:57.460Z,100529.42
2018-11-07T23:47:25.206Z,100524.25
2018-11-07T23:49:52.876Z,100527.44
2018-11-07T23:52:26.280Z,100532.45
2018-11-07T23:54:54.014Z,100533.45
2018-11-07T23:57:21.796Z,100537.93
2018-11-07T23:59:49.431Z,100536.97
